Time,TemperatureF,DewpointF,PressureIn,WindDirection,WindDirectionDegrees,WindSpeedMPH,WindSpeedGustMPH,Humidity,HourlyPrecipIn,Conditions,Clouds,dailyrainin,SoftwareType,DateUTC
2013-09-03 00:00:00,63.9,63.9,29.63,WSW,257,0.0,0.0,100,0.00,,,0.94,Wunderground v.1.15,2013-09-03 04:00:00,
2013-09-03 00:05:00,63.7,63.7,29.64,WSW,257,0.0,0.0,100,0.00,,,0.95,Wunderground v.1.15,2013-09-03 04:05:00,
2013-09-03 00:10:00,63.9,63.9,29.63,WSW,257,0.0,0.0,100,0.00,,,0.00,Wunderground v.1.15,2013-09-03 04:10:00,
2013-09-03 00:15:00,64.2,64.2,29.63,WSW,257,0.0,0.0,100,0.00,,,0.00,Wunderground v.1.15,2013-09-03 04:15:00,
2013-09-03 00:20:00,64.3,64.3,29.63,WSW,257,0.0,0.0,100,0.00,,,0.00,Wunderground v.1.15,2013-09-03 04:20:00,
2013-09-03 00:25:00,64.3,64.3,29.63,WSW,257,0.0,0.0,100,0.00,,,0.00,Wunderground v.1.15,2013-09-03 04:25:00,
2013-09-03 00:30:00,64.2,64.2,29.63,WSW,257,0.0,0.0,100,0.00,,,0.00,Wunderground v.1.15,2013-09-03 04:30:00,
2013-09-03 00:40:00,64.0,64.0,29.63,WSW,257,0.0,0.0,100,0.00,,,0.00,Wunderground v.1.15,2013-09-03 04:40:00,
2013-09-03 00:50:00,63.7,63.7,29.63,WSW,257,0.0,0.0,100,0.00,,,0.00,Wunderground v.1.15,2013-09-03 04:50:00,
2013-09-03 00:55:00,64.0,64.0,29.63,WSW,257,0.0,0.0,100,0.00,,,0.00,Wunderground v.1.15,2013-09-03 04:55:00,
2013-09-03 01:00:00,64.2,64.2,29.62,WSW,257,0.0,0.0,100,0.00,,,0.00,Wunderground v.1.15,2013-09-03 05:00:00,
2013-09-03 01:10:00,64.0,64.0,29.61,WSW,257,0.0,0.0,100,0.00,,,0.00,Wunderground v.1.15,2013-09-03 05:10:00,
2013-09-03 01:20:00,64.2,64.2,29.61,WSW,257,0.0,0.0,100,0.00,,,0.00,Wunderground v.1.15,2013-09-03 05:20:00,
2013-09-03 01:30:00,64.3,64.3,29.61,WSW,257,0.0,0.0,100,0.00,,,0.00,Wunderground v.1.15,2013-09-03 05:30:00,
2013-09-03 01:40:00,64.3,64.3,29.61,WSW,257,0.0,0.0,100,0.00,,,0.00,Wunderground v.1.15,2013-09-03 05:40:00,
2013-09-03 01:50:00,64.0,64.0,29.60,WSW,257,0.0,0.0,100,0.00,,,0.00,Wunderground v.1.15,2013-09-03 05:50:00,
2013-09-03 01:55:00,63.9,63.9,29.60,WSW,257,0.0,0.0,100,0.00,,,0.00,Wunderground v.1.15,2013-09-03 05:55:00,
2013-09-03 02:05:00,63.1,63.1,29.60,WSW,257,0.0,0.0,100,0.00,,,0.00,Wunderground v.1.15,2013-09-03 06:05:00,
2013-09-03 02:10:00,63.1,63.1,29.59,WSW,257,0.0,0.0,100,0.00,,,0.00,Wunderground v.1.15,2013-09-03 06:10:00,
2013-09-03 02:20:00,62.9,62.9,29.59,WSW,257,0.0,0.0,100,0.00,,,0.00,Wunderground v.1.15,2013-09-03 06:20:00,
2013-09-03 02:30:00,63.1,63.1,29.60,WSW,257,0.0,0.0,100,0.00,,,0.00,Wunderground v.1.15,2013-09-03 06:30:00,
2013-09-03 02:40:00,63.5,63.5,29.59,WSW,257,0.0,0.0,100,0.00,,,0.00,Wunderground v.1.15,2013-09-03 06:40:00,
2013-09-03 02:50:00,64.0,64.0,29.59,WSW,257,0.0,0.0,100,0.00,,,0.00,Wunderground v.1.15,2013-09-03 06:50:00,
2013-09-03 03:00:00,63.7,63.7,29.59,WSW,257,0.0,0.0,100,0.00,,,0.00,Wunderground v.1.15,2013-09-03 07:00:00,
2013-09-03 03:05:00,63.5,63.5,29.59,WSW,257,0.0,0.0,100,0.00,,,0.00,Wunderground v.1.15,2013-09-03 07:05:00,
2013-09-03 03:10:00,63.5,63.5,29.59,WSW,257,0.0,0.0,100,0.00,,,0.00,Wunderground v.1.15,2013-09-03 07:10:00,
2013-09-03 03:20:00,63.9,63.9,29.59,WSW,257,0.0,0.0,100,0.00,,,0.00,Wunderground v.1.15,2013-09-03 07:20:00,
2013-09-03 03:30:00,63.9,63.9,29.59,WSW,257,0.0,0.0,100,0.00,,,0.00,Wunderground v.1.15,2013-09-03 07:30:00,
2013-09-03 03:40:00,63.5,63.5,29.59,WSW,257,0.0,0.0,100,0.00,,,0.00,Wunderground v.1.15,2013-09-03 07:40:00,
2013-09-03 03:50:00,63.1,63.1,29.60,WSW,257,0.0,0.0,100,0.00,,,0.00,Wunderground v.1.15,2013-09-03 07:50:00,
2013-09-03 04:00:00,63.1,63.1,29.60,WSW,257,0.0,0.0,100,0.00,,,0.00,Wunderground v.1.15,2013-09-03 08:00:00,
2013-09-03 04:10:00,63.5,63.5,29.60,WSW,257,0.0,0.0,100,0.00,,,0.00,Wunderground v.1.15,2013-09-03 08:10:00,
2013-09-03 04:15:00,63.5,63.5,29.60,WSW,257,0.0,0.0,100,0.00,,,0.00,Wunderground v.1.15,2013-09-03 08:15:00,
2013-09-03 04:25:00,63.5,63.5,29.60,WSW,257,0.0,0.0,100,0.00,,,0.00,Wunderground v.1.15,2013-09-03 08:25:00,
2013-09-03 04:35:00,63.7,63.7,29.60,WSW,257,0.0,0.0,100,0.00,,,0.00,Wunderground v.1.15,2013-09-03 08:35:00,
2013-09-03 04:40:00,63.7,63.7,29.60,WSW,257,0.0,0.0,100,0.00,,,0.00,Wunderground v.1.15,2013-09-03 08:40:00,
2013-09-03 04:50:00,63.7,63.7,29.60,WSW,257,0.0,0.0,100,0.00,,,0.00,Wunderground v.1.15,2013-09-03 08:50:00,
2013-09-03 05:00:00,63.7,63.7,29.59,WSW,257,0.0,0.0,100,0.00,,,0.00,Wunderground v.1.15,2013-09-03 09:00:00,
2013-09-03 05:10:00,63.5,63.5,29.64,WSW,257,0.0,0.0,100,0.00,,,0.00,Wunderground v.1.15,2013-09-03 09:10:00,
2013-09-03 05:20:00,63.7,63.7,29.64,WSW,257,0.0,0.0,100,0.00,,,0.00,Wunderground v.1.15,2013-09-03 09:20:00,
2013-09-03 05:30:00,64.3,64.3,29.65,East,88,0.0,0.0,100,0.00,,,0.00,Wunderground v.1.15,2013-09-03 09:30:00,
2013-09-03 05:40:00,64.0,64.0,29.66,NNE,26,0.0,0.0,100,0.00,,,0.00,Wunderground v.1.15,2013-09-03 09:40:00,
2013-09-03 05:50:00,63.5,63.5,29.66,SSW,194,0.0,0.0,100,0.00,,,0.00,Wunderground v.1.15,2013-09-03 09:50:00,
2013-09-03 06:00:00,62.7,62.7,29.67,South,173,0.0,0.0,100,0.00,,,0.00,Wunderground v.1.15,2013-09-03 10:00:00,
2013-09-03 06:05:00,62.4,62.4,29.67,ESE,106,0.0,0.0,100,0.00,,,0.00,Wunderground v.1.15,2013-09-03 10:05:00,
2013-09-03 06:10:00,62.3,62.0,29.67,ESE,106,0.0,0.0,99,0.00,,,0.00,Wunderground v.1.15,2013-09-03 10:10:00,
2013-09-03 06:20:00,61.8,61.5,29.68,ESE,107,0.0,0.0,99,0.00,,,0.00,Wunderground v.1.15,2013-09-03 10:20:00,
2013-09-03 06:30:00,61.5,60.9,29.69,WSW,237,0.0,0.0,98,0.00,,,0.00,Wunderground v.1.15,2013-09-03 10:30:00,
2013-09-03 06:40:00,61.2,59.8,29.70,SSW,195,1.0,2.0,95,0.00,,,0.01,Wunderground v.1.15,2013-09-03 10:40:00,
2013-09-03 06:50:00,61.2,59.2,29.70,WSW,246,1.0,1.0,93,0.05,,,0.02,Wunderground v.1.15,2013-09-03 10:50:00,
2013-09-03 07:00:00,61.0,58.7,29.71,ESE,114,1.0,1.0,92,0.24,,,0.05,Wunderground v.1.15,2013-09-03 11:00:00,
2013-09-03 07:10:00,60.9,58.6,29.68,SE,126,0.0,0.0,92,0.09,,,0.06,Wunderground v.1.15,2013-09-03 11:10:00,
2013-09-03 07:15:00,60.7,59.0,29.69,SE,126,0.0,0.0,94,0.05,,,0.06,Wunderground v.1.15,2013-09-03 11:15:00,
2013-09-03 07:25:00,60.4,59.0,29.68,SE,126,0.0,0.0,95,0.04,,,0.07,Wunderground v.1.15,2013-09-03 11:25:00,
2013-09-03 07:35:00,60.4,59.3,29.67,ESE,120,1.0,2.0,96,0.04,,,0.07,Wunderground v.1.15,2013-09-03 11:35:00,
2013-09-03 07:40:00,60.5,59.6,29.68,WSW,258,0.0,0.0,97,0.00,,,0.08,Wunderground v.1.15,2013-09-03 11:40:00,
2013-09-03 07:50:00,60.4,59.5,29.69,WSW,258,0.0,0.0,97,0.08,,,0.09,Wunderground v.1.15,2013-09-03 11:50:00,
2013-09-03 08:00:00,60.2,59.3,29.70,WSW,258,0.0,0.0,97,0.05,,,0.09,Wunderground v.1.15,2013-09-03 12:00:00,
2013-09-03 08:10:00,60.2,59.6,29.69,WSW,258,0.0,0.0,98,0.00,,,0.10,Wunderground v.1.15,2013-09-03 12:10:00,
2013-09-03 08:20:00,60.1,59.5,29.68,WSW,258,0.0,0.0,98,0.00,,,0.10,Wunderground v.1.15,2013-09-03 12:20:00,
2013-09-03 08:30:00,59.9,59.3,29.68,WSW,258,0.0,0.0,98,0.00,,,0.10,Wunderground v.1.15,2013-09-03 12:30:00,
2013-09-03 08:35:00,59.9,59.3,29.68,WSW,258,0.0,0.0,98,0.00,,,0.10,Wunderground v.1.15,2013-09-03 12:35:00,
2013-09-03 08:45:00,60.1,59.5,29.68,WSW,258,0.0,0.0,98,0.00,,,0.10,Wunderground v.1.15,2013-09-03 12:45:00,
2013-09-03 08:50:00,60.1,59.5,29.67,WSW,258,0.0,0.0,98,0.00,,,0.10,Wunderground v.1.15,2013-09-03 12:50:00,
2013-09-03 09:00:00,60.4,60.1,29.67,WSW,258,0.0,1.0,99,0.00,,,0.10,Wunderground v.1.15,2013-09-03 13:00:00,
2013-09-03 09:10:00,60.7,60.4,29.66,WSW,258,1.0,1.0,99,0.00,,,0.10,Wunderground v.1.15,2013-09-03 13:10:00,
2013-09-03 09:20:00,60.9,60.6,29.67,WSW,258,1.0,1.0,99,0.00,,,0.10,Wunderground v.1.15,2013-09-03 13:20:00,
2013-09-03 09:30:00,61.2,60.9,29.66,WSW,258,0.0,2.0,99,0.00,,,0.10,Wunderground v.1.15,2013-09-03 13:30:00,
2013-09-03 09:40:00,61.6,61.0,29.66,WSW,258,1.0,1.0,98,0.00,,,0.10,Wunderground v.1.15,2013-09-03 13:40:00,
2013-09-03 09:50:00,62.3,61.7,29.66,WSW,258,0.0,0.0,98,0.00,,,0.10,Wunderground v.1.15,2013-09-03 13:50:00,
2013-09-03 10:00:00,62.7,62.1,29.67,WSW,258,0.0,0.0,98,0.00,,,0.10,Wunderground v.1.15,2013-09-03 14:00:00,
2013-09-03 10:10:00,63.2,62.6,29.67,WSW,258,0.0,0.0,98,0.00,,,0.10,Wunderground v.1.15,2013-09-03 14:10:00,
2013-09-03 10:15:00,63.4,62.8,29.67,WSW,258,0.0,0.0,98,0.00,,,0.10,Wunderground v.1.15,2013-09-03 14:15:00,
2013-09-03 10:20:00,63.7,63.1,29.67,WSW,258,0.0,0.0,98,0.00,,,0.10,Wunderground v.1.15,2013-09-03 14:20:00,
2013-09-03 10:30:00,64.2,63.6,29.67,WSW,258,0.0,0.0,98,0.00,,,0.10,Wunderground v.1.15,2013-09-03 14:30:00,
2013-09-03 10:40:00,65.0,64.1,29.67,WSW,258,0.0,0.0,97,0.00,,,0.10,Wunderground v.1.15,2013-09-03 14:40:00,
2013-09-03 10:50:00,66.0,64.8,29.67,WSW,258,0.0,0.0,96,0.00,,,0.10,Wunderground v.1.15,2013-09-03 14:50:00,
2013-09-03 11:00:00,66.8,65.0,29.67,WSW,258,0.0,0.0,94,0.00,,,0.10,Wunderground v.1.15,2013-09-03 15:00:00,
2013-09-03 11:10:00,67.1,64.7,29.68,WSW,258,0.0,1.0,92,0.00,,,0.10,Wunderground v.1.15,2013-09-03 15:10:00,
2013-09-03 11:20:00,67.6,63.6,29.67,WSW,258,0.0,0.0,87,0.00,,,0.10,Wunderground v.1.15,2013-09-03 15:20:00,
2013-09-03 11:25:00,68.6,64.2,29.67,WSW,257,0.0,1.0,86,0.00,,,0.10,Wunderground v.1.15,2013-09-03 15:25:00,
2013-09-03 11:35:00,69.8,65.1,29.67,WSW,257,0.0,0.0,85,0.00,,,0.10,Wunderground v.1.15,2013-09-03 15:35:00,
2013-09-03 11:45:00,70.6,63.4,29.67,West,271,0.0,0.0,78,0.00,,,0.10,Wunderground v.1.15,2013-09-03 15:45:00,
2013-09-03 11:50:00,70.8,62.5,29.67,West,271,0.0,0.0,75,0.00,,,0.10,Wunderground v.1.15,2013-09-03 15:50:00,
2013-09-03 12:00:00,72.7,63.5,29.67,SSW,212,0.0,0.0,73,0.00,,,0.10,Wunderground v.1.15,2013-09-03 16:00:00,
2013-09-03 12:10:00,73.7,65.3,29.66,SW,215,0.0,0.0,75,0.00,,,0.10,Wunderground v.1.15,2013-09-03 16:10:00,
2013-09-03 12:20:00,74.6,64.2,29.67,SW,223,0.0,0.0,70,0.00,,,0.10,Wunderground v.1.15,2013-09-03 16:20:00,
2013-09-03 12:30:00,75.1,63.8,29.67,ESE,119,0.0,0.0,68,0.00,,,0.10,Wunderground v.1.15,2013-09-03 16:30:00,
2013-09-03 12:40:00,76.1,65.2,29.66,NE,36,0.0,0.0,69,0.00,,,0.10,Wunderground v.1.15,2013-09-03 16:40:00,
2013-09-03 12:50:00,76.5,65.6,29.66,ENE,74,0.0,0.0,69,0.00,,,0.10,Wunderground v.1.15,2013-09-03 16:50:00,
2013-09-03 13:00:00,76.3,65.8,29.66,ENE,74,0.0,0.0,70,0.00,,,0.10,Wunderground v.1.15,2013-09-03 17:00:00,
2013-09-03 13:10:00,75.3,64.4,29.67,ENE,74,0.0,0.0,69,0.00,,,0.10,Wunderground v.1.15,2013-09-03 17:10:00,
2013-09-03 13:20:00,74.6,64.2,29.67,ENE,74,0.0,0.0,70,0.00,,,0.10,Wunderground v.1.15,2013-09-03 17:20:00,
2013-09-03 13:25:00,74.6,66.1,29.66,ENE,74,0.0,0.0,75,0.00,,,0.10,Wunderground v.1.15,2013-09-03 17:25:00,
2013-09-03 13:35:00,74.6,64.2,29.66,ENE,73,0.0,0.0,70,0.00,,,0.10,Wunderground v.1.15,2013-09-03 17:35:00,
2013-09-03 13:45:00,74.7,65.1,29.66,ENE,73,0.0,0.0,72,0.00,,,0.10,Wunderground v.1.15,2013-09-03 17:45:00,
2013-09-03 13:55:00,75.1,65.1,29.66,ENE,77,0.0,0.0,71,0.00,,,0.10,Wunderground v.1.15,2013-09-03 17:55:00,
2013-09-03 14:00:00,74.7,65.1,29.66,ENE,77,0.0,0.0,72,0.00,,,0.10,Wunderground v.1.15,2013-09-03 18:00:00,
2013-09-03 14:10:00,74.6,67.3,29.66,ENE,77,0.0,0.0,78,0.00,,,0.10,Wunderground v.1.15,2013-09-03 18:10:00,
2013-09-03 14:20:00,73.9,66.6,29.67,ENE,77,0.0,0.0,78,0.00,,,0.10,Wunderground v.1.15,2013-09-03 18:20:00,
2013-09-03 14:30:00,74.2,67.3,29.66,ENE,76,0.0,0.0,79,0.00,,,0.10,Wunderground v.1.15,2013-09-03 18:30:00,
2013-09-03 14:40:00,74.4,68.5,29.65,NE,45,0.0,0.0,82,0.00,,,0.10,Wunderground v.1.15,2013-09-03 18:40:00,
2013-09-03 14:45:00,73.7,68.9,29.65,NE,45,0.0,0.0,85,0.00,,,0.10,Wunderground v.1.15,2013-09-03 18:45:00,
2013-09-03 14:55:00,74.2,69.4,29.65,NNE,22,0.0,0.0,85,0.00,,,0.10,Wunderground v.1.15,2013-09-03 18:55:00,
2013-09-03 15:05:00,76.3,70.0,29.64,NNE,22,0.0,0.0,81,0.00,,,0.10,Wunderground v.1.15,2013-09-03 19:05:00,
2013-09-03 15:15:00,77.2,69.4,29.63,West,267,0.0,0.0,77,0.00,,,0.10,Wunderground v.1.15,2013-09-03 19:15:00,
2013-09-03 15:20:00,77.9,68.1,29.64,SSW,196,0.0,0.0,72,0.00,,,0.10,Wunderground v.1.15,2013-09-03 19:20:00,
2013-09-03 15:30:00,77.9,67.7,29.64,East,95,0.0,0.0,71,0.00,,,0.10,Wunderground v.1.15,2013-09-03 19:30:00,
2013-09-03 15:35:00,78.3,70.9,29.63,East,84,0.0,0.0,78,0.00,,,0.10,Wunderground v.1.15,2013-09-03 19:35:00,
2013-09-03 15:45:00,78.8,69.8,29.62,NNE,14,0.0,0.0,74,0.00,,,0.10,Wunderground v.1.15,2013-09-03 19:45:00,
2013-09-03 15:50:00,79.4,66.6,29.63,NNW,331,0.0,0.0,65,0.00,,,0.10,Wunderground v.1.15,2013-09-03 19:50:00,
2013-09-03 16:00:00,79.4,66.6,29.63,North,5,0.0,0.0,65,0.00,,,0.10,Wunderground v.1.15,2013-09-03 20:00:00,
2013-09-03 16:10:00,77.9,67.7,29.62,North,5,0.0,0.0,71,0.00,,,0.10,Wunderground v.1.15,2013-09-03 20:10:00,
2013-09-03 16:20:00,76.3,67.4,29.63,North,5,0.0,0.0,74,0.00,,,0.10,Wunderground v.1.15,2013-09-03 20:20:00,
2013-09-03 16:30:00,75.1,67.8,29.63,North,5,0.0,0.0,78,0.00,,,0.10,Wunderground v.1.15,2013-09-03 20:30:00,
2013-09-03 16:40:00,74.2,66.5,29.64,North,5,0.0,0.0,77,0.00,,,0.10,Wunderground v.1.15,2013-09-03 20:40:00,
2013-09-03 16:50:00,73.7,66.0,29.63,North,5,0.0,0.0,77,0.00,,,0.10,Wunderground v.1.15,2013-09-03 20:50:00,
2013-09-03 17:00:00,73.5,65.8,29.63,North,5,0.0,0.0,77,0.00,,,0.10,Wunderground v.1.15,2013-09-03 21:00:00,
2013-09-03 17:10:00,73.5,65.5,29.63,North,5,0.0,0.0,76,0.00,,,0.10,Wunderground v.1.15,2013-09-03 21:10:00,
2013-09-03 17:20:00,74.0,65.6,29.64,North,5,0.0,0.0,75,0.00,,,0.10,Wunderground v.1.15,2013-09-03 21:20:00,
2013-09-03 17:30:00,74.6,66.5,29.64,NNE,16,0.0,0.0,76,0.00,,,0.10,Wunderground v.1.15,2013-09-03 21:30:00,
2013-09-03 17:40:00,74.6,66.1,29.64,NNE,16,0.0,0.0,75,0.00,,,0.10,Wunderground v.1.15,2013-09-03 21:40:00,
2013-09-03 17:50:00,74.4,66.3,29.64,North,5,0.0,0.0,76,0.00,,,0.10,Wunderground v.1.15,2013-09-03 21:50:00,
2013-09-03 18:00:00,74.0,66.7,29.64,North,5,0.0,0.0,78,0.00,,,0.10,Wunderground v.1.15,2013-09-03 22:00:00,
2013-09-03 18:10:00,73.9,65.9,29.65,NW,308,0.0,0.0,76,0.00,,,0.10,Wunderground v.1.15,2013-09-03 22:10:00,
2013-09-03 18:20:00,73.7,66.4,29.65,NW,308,0.0,0.0,78,0.00,,,0.10,Wunderground v.1.15,2013-09-03 22:20:00,
2013-09-03 18:30:00,72.7,67.2,29.65,NW,308,0.0,0.0,83,0.00,,,0.10,Wunderground v.1.15,2013-09-03 22:30:00,
2013-09-03 18:40:00,71.8,67.0,29.66,NW,309,0.0,0.0,85,0.00,,,0.10,Wunderground v.1.15,2013-09-03 22:40:00,
2013-09-03 18:50:00,71.3,67.2,29.66,NW,309,0.0,0.0,87,0.00,,,0.10,Wunderground v.1.15,2013-09-03 22:50:00,
2013-09-03 19:00:00,70.8,66.7,29.66,NW,308,0.0,0.0,87,0.00,,,0.10,Wunderground v.1.15,2013-09-03 23:00:00,
2013-09-03 19:10:00,70.3,66.6,29.67,NW,308,0.0,0.0,88,0.00,,,0.10,Wunderground v.1.15,2013-09-03 23:10:00,
2013-09-03 19:20:00,69.9,66.2,29.67,NW,308,0.0,0.0,88,0.00,,,0.10,Wunderground v.1.15,2013-09-03 23:20:00,
2013-09-03 19:30:00,69.4,66.0,29.68,NW,308,0.0,0.0,89,0.00,,,0.10,Wunderground v.1.15,2013-09-03 23:30:00,
2013-09-03 19:40:00,68.9,65.8,29.68,NW,309,0.0,0.0,90,0.00,,,0.10,Wunderground v.1.15,2013-09-03 23:40:00,
2013-09-03 19:50:00,68.6,65.5,29.69,NW,308,0.0,0.0,90,0.00,,,0.10,Wunderground v.1.15,2013-09-03 23:50:00,
2013-09-03 19:55:00,68.4,65.7,29.69,NW,308,0.0,0.0,91,0.00,,,0.10,Wunderground v.1.15,2013-09-03 23:55:00,
2013-09-03 20:05:00,68.1,65.7,29.70,NW,308,0.0,0.0,92,0.00,,,0.10,Wunderground v.1.15,2013-09-04 00:05:00,
2013-09-03 20:15:00,67.8,65.4,29.70,NW,308,0.0,0.0,92,0.00,,,0.10,Wunderground v.1.15,2013-09-04 00:15:00,
2013-09-03 20:20:00,67.6,65.5,29.70,NW,308,0.0,0.0,93,0.00,,,0.10,Wunderground v.1.15,2013-09-04 00:20:00,
2013-09-03 20:30:00,67.3,65.2,29.70,NW,309,0.0,0.0,93,0.00,,,0.10,Wunderground v.1.15,2013-09-04 00:30:00,
2013-09-03 20:40:00,67.1,65.0,29.71,NW,308,0.0,0.0,93,0.00,,,0.10,Wunderground v.1.15,2013-09-04 00:40:00,
2013-09-03 20:50:00,67.1,65.0,29.72,NW,308,0.0,0.0,93,0.00,,,0.10,Wunderground v.1.15,2013-09-04 00:50:00,
2013-09-03 21:00:00,66.9,65.1,29.72,NW,308,0.0,0.0,94,0.00,,,0.10,Wunderground v.1.15,2013-09-04 01:00:00,
2013-09-03 21:10:00,66.6,64.2,29.72,NW,309,0.0,0.0,92,0.00,,,0.10,Wunderground v.1.15,2013-09-04 01:10:00,
2013-09-03 21:20:00,66.4,63.1,29.74,NW,309,0.0,0.0,89,0.00,,,0.10,Wunderground v.1.15,2013-09-04 01:20:00,
2013-09-03 21:30:00,66.8,63.8,29.73,NW,308,0.0,0.0,90,0.00,,,0.10,Wunderground v.1.15,2013-09-04 01:30:00,
2013-09-03 21:40:00,66.4,63.7,29.74,NW,309,0.0,0.0,91,0.00,,,0.10,Wunderground v.1.15,2013-09-04 01:40:00,
2013-09-03 21:50:00,66.3,63.9,29.74,NW,309,0.0,0.0,92,0.00,,,0.10,Wunderground v.1.15,2013-09-04 01:50:00,
2013-09-03 21:55:00,66.1,63.1,29.75,NE,40,0.0,0.0,90,0.00,,,0.10,Wunderground v.1.15,2013-09-04 01:55:00,
2013-09-03 22:05:00,66.3,63.6,29.74,NE,40,0.0,0.0,91,0.00,,,0.10,Wunderground v.1.15,2013-09-04 02:05:00,
2013-09-03 22:15:00,66.1,63.7,29.74,NE,40,0.0,0.0,92,0.00,,,0.10,Wunderground v.1.15,2013-09-04 02:15:00,
2013-09-03 22:20:00,66.1,63.7,29.74,NE,40,0.0,0.0,92,0.00,,,0.10,Wunderground v.1.15,2013-09-04 02:20:00,
2013-09-03 22:30:00,66.0,63.6,29.74,NE,40,0.0,0.0,92,0.00,,,0.10,Wunderground v.1.15,2013-09-04 02:30:00,
2013-09-03 22:40:00,65.6,63.2,29.75,NE,40,0.0,0.0,92,0.00,,,0.10,Wunderground v.1.15,2013-09-04 02:40:00,
2013-09-03 22:50:00,65.5,62.8,29.75,NE,40,0.0,0.0,91,0.00,,,0.10,Wunderground v.1.15,2013-09-04 02:50:00,
2013-09-03 23:00:00,65.6,63.2,29.75,NE,40,0.0,0.0,92,0.00,,,0.10,Wunderground v.1.15,2013-09-04 03:00:00,
2013-09-03 23:10:00,65.5,63.4,29.72,NE,40,0.0,0.0,93,0.00,,,0.10,Wunderground v.1.15,2013-09-04 03:10:00,
2013-09-03 23:20:00,65.3,62.9,29.73,NE,40,0.0,0.0,92,0.00,,,0.10,Wunderground v.1.15,2013-09-04 03:20:00,
2013-09-03 23:30:00,65.3,62.6,29.73,NE,40,0.0,0.0,91,0.00,,,0.10,Wunderground v.1.15,2013-09-04 03:30:00,
2013-09-03 23:40:00,65.5,62.8,29.73,NE,40,0.0,0.0,91,0.00,,,0.10,Wunderground v.1.15,2013-09-04 03:40:00,
2013-09-03 23:50:00,65.8,61.8,29.73,NE,40,0.0,0.0,87,0.00,,,0.10,Wunderground v.1.15,2013-09-04 03:50:00,